Time;durP1;ratioP1;P1;durP2;ratioP2;P2;SDS_P1;SDS_P2;PMS_P1;PMS_P2;Temp;Humidity;BMP_temperature;BMP_pressure;BME280_temperature;BME280_humidity;BME280_pressure;Samples;Min_cycle;Max_cycle;Signal;HPM_P1;HPM_P2
2021/12/28 00:00:23;;;;;;;;;;;7.60;99.90;;;;;;5107456;28;19932;-62
2021/12/28 00:02:50;;;;;;;;;;;7.60;99.90;;;;;;5107523;28;19923;-64
2021/12/28 00:05:16;;;;;;;;;;;7.70;99.90;;;;;;5109955;27;19919;-64
2021/12/28 00:07:42;;;;;;;;;;;7.80;99.90;;;;;;5114879;28;20043;-63
2021/12/28 00:10:09;;;;;;;;;;;7.70;99.90;;;;;;5118172;27;19980;-63
2021/12/28 00:12:37;;;;;;;;;;;7.60;99.90;;;;;;5110230;28;19920;-63
2021/12/28 00:15:18;;;;;;;;;;;7.70;99.90;;;;;;5110475;28;19920;-63
2021/12/28 00:18:02;;;;;;;;;;;7.80;99.90;;;;;;5112186;28;20411;-62
2021/12/28 00:20:33;;;;;;;;;;;7.70;99.90;;;;;;5100475;27;19967;-64
2021/12/28 00:22:59;;;;;;;;;;;7.80;99.90;;;;;;5104353;28;19978;-63
2021/12/28 00:25:25;;;;;;;;;;;7.70;99.90;;;;;;5109019;28;19983;-63
2021/12/28 00:27:50;;;;;;;;;;;7.80;99.90;;;;;;5113334;28;20358;-63
2021/12/28 00:30:16;;;;;;;;;;;7.70;99.90;;;;;;5109184;27;19968;-64
2021/12/28 00:32:42;;;;;;;;;;;7.70;99.90;;;;;;5103643;28;19924;-63
2021/12/28 00:35:08;;;;;;;;;;;7.60;99.90;;;;;;5105355;27;19996;-63
2021/12/28 00:37:33;;;;;;;;;;;7.60;99.90;;;;;;5109351;28;20294;-64
2021/12/28 00:39:59;;;;;;;;;;;7.60;99.90;;;;;;5106159;28;19919;-62
2021/12/28 00:42:24;;;;;;;;;;;7.60;99.90;;;;;;5105911;28;20015;-64
2021/12/28 00:44:50;;;;;;;;;;;7.70;99.90;;;;;;5107124;28;19923;-64
2021/12/28 00:47:16;;;;;;;;;;;7.50;99.90;;;;;;5107500;28;19916;-62
2021/12/28 00:49:41;;;;;;;;;;;7.40;99.90;;;;;;5099671;28;20378;-64
2021/12/28 00:52:07;;;;;;;;;;;7.40;99.90;;;;;;5096857;28;19927;-63
2021/12/28 00:54:32;;;;;;;;;;;7.50;99.90;;;;;;5108106;28;19920;-63
2021/12/28 00:56:58;;;;;;;;;;;7.50;99.90;;;;;;5095639;28;20546;-64
2021/12/28 00:59:24;;;;;;;;;;;7.40;99.90;;;;;;5112387;28;19942;-63
2021/12/28 01:01:49;;;;;;;;;;;7.40;99.90;;;;;;5107302;28;19920;-63
2021/12/28 01:04:15;;;;;;;;;;;7.40;99.90;;;;;;5098894;27;20019;-63
2021/12/28 01:06:41;;;;;;;;;;;7.30;99.90;;;;;;5112281;27;19920;-64
2021/12/28 01:09:06;;;;;;;;;;;7.30;99.90;;;;;;5111821;27;19916;-64
2021/12/28 01:11:32;;;;;;;;;;;7.30;99.90;;;;;;5098513;27;19915;-64
2021/12/28 01:13:57;;;;;;;;;;;7.30;99.90;;;;;;5117047;27;19922;-63
2021/12/28 01:16:23;;;;;;;;;;;7.30;99.90;;;;;;5115161;27;20631;-64
2021/12/28 01:18:48;;;;;;;;;;;7.20;99.90;;;;;;5116406;27;20031;-64
2021/12/28 01:21:14;;;;;;;;;;;7.20;99.90;;;;;;5114430;27;19920;-64
2021/12/28 01:23:39;;;;;;;;;;;7.40;99.90;;;;;;5112788;27;19912;-64
2021/12/28 01:26:05;;;;;;;;;;;7.40;99.90;;;;;;5110346;27;19999;-63
2021/12/28 01:28:30;;;;;;;;;;;7.30;99.90;;;;;;5087942;27;20302;-63
2021/12/28 01:30:56;;;;;;;;;;;7.20;99.90;;;;;;5110834;27;19916;-63
2021/12/28 01:33:21;;;;;;;;;;;7.20;99.90;;;;;;5112845;27;20359;-64
2021/12/28 01:35:47;;;;;;;;;;;7.30;99.90;;;;;;5105689;27;19965;-62
2021/12/28 01:38:13;;;;;;;;;;;7.30;99.90;;;;;;5111567;27;20387;-62
2021/12/28 01:40:40;;;;;;;;;;;7.40;99.90;;;;;;5107492;27;19951;-64
2021/12/28 01:43:07;;;;;;;;;;;7.30;99.90;;;;;;5115204;27;19930;-64
2021/12/28 01:45:37;;;;;;;;;;;7.40;99.90;;;;;;5103003;27;20214;-63
2021/12/28 01:48:04;;;;;;;;;;;7.40;99.90;;;;;;5112559;27;19923;-64
2021/12/28 01:50:29;;;;;;;;;;;7.40;99.90;;;;;;5083093;27;21096;-64
2021/12/28 01:52:55;;;;;;;;;;;7.40;99.90;;;;;;5082203;27;19915;-62
2021/12/28 01:55:20;;;;;;;;;;;7.40;99.90;;;;;;5111230;27;19927;-64
2021/12/28 01:57:46;;;;;;;;;;;7.40;99.90;;;;;;5115080;27;19919;-64
2021/12/28 02:00:12;;;;;;;;;;;7.50;99.90;;;;;;5111861;27;20441;-64
2021/12/28 02:02:37;;;;;;;;;;;7.50;99.90;;;;;;5109445;27;19916;-64
2021/12/28 02:05:03;;;;;;;;;;;7.50;99.90;;;;;;5108677;27;19926;-64
2021/12/28 02:07:28;;;;;;;;;;;7.60;99.90;;;;;;5091796;27;20010;-63
2021/12/28 02:09:54;;;;;;;;;;;7.50;99.90;;;;;;5119104;27;19935;-64
2021/12/28 02:12:19;;;;;;;;;;;7.60;99.90;;;;;;5112421;27;19915;-63
2021/12/28 02:14:45;;;;;;;;;;;7.60;99.90;;;;;;5114544;27;20518;-64
2021/12/28 02:17:10;;;;;;;;;;;7.70;99.90;;;;;;5110679;27;19920;-64
2021/12/28 02:19:36;;;;;;;;;;;7.70;99.90;;;;;;5107648;27;19920;-64
2021/12/28 02:22:02;;;;;;;;;;;7.70;99.90;;;;;;5100714;27;20371;-63
2021/12/28 02:24:27;;;;;;;;;;;7.70;99.90;;;;;;5091553;27;20480;-63
2021/12/28 02:26:53;;;;;;;;;;;7.70;99.90;;;;;;5099161;27;19967;-62
2021/12/28 02:29:19;;;;;;;;;;;7.80;99.90;;;;;;5105356;27;20202;-63
2021/12/28 02:31:45;;;;;;;;;;;7.80;99.90;;;;;;5107172;27;20367;-64
2021/12/28 02:34:11;;;;;;;;;;;7.70;99.90;;;;;;5105382;27;19922;-64
2021/12/28 02:36:36;;;;;;;;;;;7.80;99.90;;;;;;5111102;27;20064;-63
2021/12/28 02:39:02;;;;;;;;;;;7.70;99.90;;;;;;5104432;27;19963;-61
2021/12/28 02:41:28;;;;;;;;;;;7.70;99.90;;;;;;5121436;27;20007;-63
2021/12/28 02:44:01;;;;;;;;;;;7.80;99.90;;;;;;5106793;27;19967;-64
2021/12/28 02:46:27;;;;;;;;;;;7.80;99.90;;;;;;5108268;27;20006;-64
2021/12/28 02:48:52;;;;;;;;;;;7.80;99.90;;;;;;5115590;27;20089;-64
2021/12/28 02:51:18;;;;;;;;;;;7.80;99.90;;;;;;5101814;27;19939;-64
2021/12/28 02:53:44;;;;;;;;;;;7.70;99.90;;;;;;5108990;27;19922;-63
2021/12/28 02:56:10;;;;;;;;;;;7.80;99.90;;;;;;5116277;27;19919;-64
2021/12/28 02:58:38;;;;;;;;;;;7.80;99.90;;;;;;5117754;27;19919;-63
2021/12/28 03:01:13;;;;;;;;;;;7.80;99.90;;;;;;5112102;27;20491;-63
2021/12/28 03:03:40;;;;;;;;;;;7.80;99.90;;;;;;5119923;27;20262;-62
2021/12/28 03:06:07;;;;;;;;;;;7.80;99.90;;;;;;5109379;27;20353;-63
2021/12/28 03:08:34;;;;;;;;;;;7.70;99.90;;;;;;5102050;27;20434;-62
2021/12/28 03:11:01;;;;;;;;;;;7.80;99.90;;;;;;5083277;28;19977;-63
2021/12/28 03:13:28;;;;;;;;;;;7.80;99.90;;;;;;5121558;27;19919;-64
2021/12/28 03:15:54;;;;;;;;;;;7.80;99.90;;;;;;5107886;27;20320;-64
2021/12/28 03:18:20;;;;;;;;;;;7.90;99.90;;;;;;5110035;27;19930;-63
2021/12/28 03:20:45;;;;;;;;;;;7.90;99.90;;;;;;5090799;27;19916;-63
2021/12/28 03:23:15;;;;;;;;;;;7.90;99.90;;;;;;5107944;27;20588;-63
2021/12/28 03:25:41;;;;;;;;;;;8.10;99.90;;;;;;5114198;27;20385;-64
2021/12/28 03:28:06;;;;;;;;;;;8.10;99.90;;;;;;5113195;27;19916;-62
2021/12/28 03:30:32;;;;;;;;;;;8.10;99.90;;;;;;5111583;27;19922;-62
2021/12/28 03:32:58;;;;;;;;;;;8.10;99.90;;;;;;5107982;27;19970;-63
2021/12/28 03:35:23;;;;;;;;;;;8.10;99.90;;;;;;5109266;27;20324;-63
2021/12/28 03:37:49;;;;;;;;;;;8.20;99.90;;;;;;5090730;28;20591;-63
2021/12/28 03:40:15;;;;;;;;;;;8.20;99.90;;;;;;5108682;27;19927;-63
2021/12/28 03:42:41;;;;;;;;;;;8.20;99.90;;;;;;5114382;27;19922;-63
2021/12/28 03:45:08;;;;;;;;;;;8.20;99.90;;;;;;5099435;28;20561;-64
2021/12/28 03:47:33;;;;;;;;;;;8.20;99.90;;;;;;5106307;27;19916;-63
2021/12/28 03:49:59;;;;;;;;;;;8.30;99.90;;;;;;5103453;28;20252;-62
2021/12/28 03:52:24;;;;;;;;;;;8.20;99.90;;;;;;5097814;28;20014;-63
2021/12/28 03:54:50;;;;;;;;;;;8.30;99.90;;;;;;5116821;28;20094;-63
2021/12/28 03:57:16;;;;;;;;;;;8.30;99.90;;;;;;5119176;27;19923;-63
2021/12/28 03:59:41;;;;;;;;;;;8.30;99.90;;;;;;5114450;27;19976;-64
2021/12/28 04:02:06;;;;;;;;;;;8.20;99.90;;;;;;5084726;28;19976;-63
2021/12/28 04:04:32;;;;;;;;;;;8.20;99.90;;;;;;5110293;28;19915;-63
2021/12/28 04:06:58;;;;;;;;;;;8.20;99.90;;;;;;5111652;28;19922;-63
2021/12/28 04:09:45;;;;;;;;;;;8.20;99.90;;;;;;5115131;28;20347;-63
2021/12/28 04:12:09;;;;;;;;;;;8.20;99.90;;;;;;5100761;28;19931;-63
2021/12/28 04:14:34;;;;;;;;;;;8.30;99.90;;;;;;5109926;28;19916;-63
2021/12/28 04:17:00;;;;;;;;;;;8.30;99.90;;;;;;5107972;28;19915;-63
2021/12/28 04:19:25;;;;;;;;;;;8.30;99.90;;;;;;5110075;28;19954;-63
2021/12/28 04:21:50;;;;;;;;;;;8.30;99.90;;;;;;5105800;28;19937;-63
2021/12/28 04:24:16;;;;;;;;;;;8.20;99.90;;;;;;5101728;27;20333;-63
2021/12/28 04:26:41;;;;;;;;;;;8.30;99.90;;;;;;5114064;28;19926;-63
2021/12/28 04:29:07;;;;;;;;;;;8.20;99.90;;;;;;5109858;28;20297;-64
2021/12/28 04:31:32;;;;;;;;;;;8.20;99.90;;;;;;5098954;28;20019;-63
2021/12/28 04:33:58;;;;;;;;;;;8.30;99.90;;;;;;5105677;28;19919;-62
2021/12/28 04:36:23;;;;;;;;;;;8.20;99.90;;;;;;5097250;28;20333;-62
2021/12/28 04:38:49;;;;;;;;;;;8.20;99.90;;;;;;5097626;27;19920;-63
2021/12/28 04:41:15;;;;;;;;;;;8.20;99.90;;;;;;5114881;27;20276;-63
2021/12/28 04:43:40;;;;;;;;;;;8.20;99.90;;;;;;5118264;27;19934;-64
2021/12/28 04:46:06;;;;;;;;;;;8.20;99.90;;;;;;5101470;27;20015;-64
2021/12/28 04:48:32;;;;;;;;;;;8.30;99.90;;;;;;5116337;27;19928;-63
2021/12/28 04:50:57;;;;;;;;;;;8.20;99.90;;;;;;5110671;27;19916;-62
2021/12/28 04:53:23;;;;;;;;;;;8.20;99.90;;;;;;5116248;27;19954;-63
2021/12/28 04:55:50;;;;;;;;;;;8.10;99.90;;;;;;5108781;27;19998;-62
2021/12/28 04:58:16;;;;;;;;;;;8.00;99.90;;;;;;5119584;27;19915;-63
2021/12/28 05:00:42;;;;;;;;;;;8.10;99.90;;;;;;5112512;27;19931;-63
2021/12/28 05:03:08;;;;;;;;;;;8.20;99.90;;;;;;5116389;27;20056;-63
2021/12/28 05:05:34;;;;;;;;;;;8.30;99.90;;;;;;5100968;27;20011;-63
2021/12/28 05:08:02;;;;;;;;;;;8.30;99.90;;;;;;5110048;27;20376;-63
2021/12/28 05:10:28;;;;;;;;;;;8.30;99.90;;;;;;5103344;27;20086;-62
2021/12/28 05:12:53;;;;;;;;;;;8.30;99.90;;;;;;5119787;27;20007;-63
2021/12/28 05:15:19;;;;;;;;;;;8.30;99.90;;;;;;5115246;27;20471;-63
2021/12/28 05:17:44;;;;;;;;;;;8.40;99.90;;;;;;5117582;27;20581;-63
2021/12/28 05:20:10;;;;;;;;;;;8.50;99.90;;;;;;5115305;27;20234;-63
2021/12/28 05:22:36;;;;;;;;;;;8.40;99.90;;;;;;5108343;27;19959;-63
2021/12/28 05:25:02;;;;;;;;;;;8.50;99.90;;;;;;5111267;27;20505;-63
2021/12/28 05:27:28;;;;;;;;;;;8.50;99.90;;;;;;5116829;27;19919;-64
2021/12/28 05:29:53;;;;;;;;;;;8.50;99.90;;;;;;5106228;27;19916;-63
2021/12/28 05:32:19;;;;;;;;;;;8.60;99.90;;;;;;5102259;27;20344;-63
2021/12/28 05:34:44;;;;;;;;;;;8.60;99.90;;;;;;5115211;27;20556;-63
2021/12/28 05:37:10;;;;;;;;;;;8.60;99.90;;;;;;5115344;27;19915;-64
2021/12/28 05:39:36;;;;;;;;;;;8.70;99.90;;;;;;5115069;27;20120;-63
2021/12/28 05:42:02;;;;;;;;;;;8.70;99.90;;;;;;5117869;27;19930;-63
2021/12/28 05:44:27;;;;;;;;;;;8.60;99.90;;;;;;5114977;27;19916;-63
2021/12/28 05:46:54;;;;;;;;;;;8.70;99.90;;;;;;5109612;27;19924;-64
2021/12/28 05:49:20;;;;;;;;;;;8.70;99.90;;;;;;5118537;27;19915;-63
2021/12/28 05:51:46;;;;;;;;;;;8.70;99.90;;;;;;5104893;27;19923;-63
2021/12/28 05:54:12;;;;;;;;;;;8.80;99.90;;;;;;5109785;27;19915;-63
2021/12/28 05:56:37;;;;;;;;;;;8.80;99.90;;;;;;5115206;27;19970;-63
2021/12/28 05:59:03;;;;;;;;;;;8.80;99.90;;;;;;5116955;27;20367;-63
2021/12/28 06:01:29;;;;;;;;;;;8.80;99.90;;;;;;5102729;27;20068;-64
2021/12/28 06:03:54;;;;;;;;;;;8.90;99.90;;;;;;5111617;27;19922;-63
2021/12/28 06:06:20;;;;;;;;;;;8.70;99.90;;;;;;5095485;27;20002;-63
2021/12/28 06:08:45;;;;;;;;;;;8.80;99.90;;;;;;5100037;27;20594;-63
2021/12/28 06:11:13;;;;;;;;;;;8.80;99.90;;;;;;5102741;27;19924;-63
2021/12/28 06:13:41;;;;;;;;;;;8.70;99.90;;;;;;5094205;27;19924;-63
2021/12/28 06:16:08;;;;;;;;;;;8.70;99.90;;;;;;5096947;27;20371;-63
2021/12/28 06:18:33;;;;;;;;;;;8.70;99.90;;;;;;5106173;27;20535;-63
2021/12/28 06:20:59;;;;;;;;;;;8.70;99.90;;;;;;5112416;27;20000;-64
2021/12/28 06:23:24;;;;;;;;;;;8.70;99.90;;;;;;5103952;27;19919;-63
2021/12/28 06:25:50;;;;;;;;;;;8.70;99.90;;;;;;5117592;27;19915;-64
2021/12/28 06:28:15;;;;;;;;;;;8.60;99.90;;;;;;5109137;27;20302;-63
2021/12/28 06:30:41;;;;;;;;;;;8.70;99.90;;;;;;5111504;27;19919;-64
2021/12/28 06:33:07;;;;;;;;;;;8.70;99.90;;;;;;5103283;27;20395;-63
2021/12/28 06:35:32;;;;;;;;;;;8.70;99.90;;;;;;5106751;27;19927;-62
2021/12/28 06:37:58;;;;;;;;;;;8.70;99.90;;;;;;5112710;27;19932;-62
2021/12/28 06:40:24;;;;;;;;;;;8.80;99.90;;;;;;5113126;27;19936;-63
2021/12/28 06:42:49;;;;;;;;;;;8.70;99.90;;;;;;5106954;27;19920;-62
2021/12/28 06:45:15;;;;;;;;;;;8.70;99.90;;;;;;5096483;27;19996;-63
2021/12/28 06:47:40;;;;;;;;;;;8.70;99.90;;;;;;5105043;27;19926;-63
2021/12/28 06:50:06;;;;;;;;;;;8.70;99.90;;;;;;5108263;27;19939;-63
2021/12/28 06:52:33;;;;;;;;;;;8.70;99.90;;;;;;5108449;27;19916;-64
2021/12/28 06:54:58;;;;;;;;;;;8.70;99.90;;;;;;5111019;27;19920;-63
2021/12/28 06:57:24;;;;;;;;;;;;;;;;;;5108269;27;19916;-64
2021/12/28 06:59:50;;;;;;;;;;;8.90;99.90;;;;;;5108300;27;20276;-64
2021/12/28 07:02:16;;;;;;;;;;;8.90;99.90;;;;;;5100091;27;19958;-64
2021/12/28 07:04:42;;;;;;;;;;;8.90;99.90;;;;;;5107502;27;19924;-64
2021/12/28 07:07:08;;;;;;;;;;;8.90;99.90;;;;;;5103936;27;19930;-63
2021/12/28 07:09:34;;;;;;;;;;;8.90;99.90;;;;;;5105381;27;19926;-64
2021/12/28 07:12:00;;;;;;;;;;;8.90;99.90;;;;;;5116160;27;19920;-64
2021/12/28 07:14:25;;;;;;;;;;;8.90;99.90;;;;;;5105260;27;19915;-63
2021/12/28 07:16:51;;;;;;;;;;;8.90;99.90;;;;;;5116394;27;20328;-63
2021/12/28 07:19:16;;;;;;;;;;;9.00;99.90;;;;;;5109066;27;19926;-64
2021/12/28 07:21:42;;;;;;;;;;;9.00;99.90;;;;;;5104033;27;19916;-64
2021/12/28 07:24:08;;;;;;;;;;;8.90;99.90;;;;;;5111821;27;20284;-64
2021/12/28 07:26:34;;;;;;;;;;;8.80;99.90;;;;;;5117901;27;19915;-64
2021/12/28 07:28:59;;;;;;;;;;;8.90;99.90;;;;;;5105554;27;20305;-63
2021/12/28 07:31:25;;;;;;;;;;;9.00;99.90;;;;;;5106545;27;19926;-64
2021/12/28 07:33:51;;;;;;;;;;;9.00;99.90;;;;;;5092576;27;20373;-63
2021/12/28 07:36:16;;;;;;;;;;;9.00;99.90;;;;;;5098894;27;20272;-64
2021/12/28 07:38:42;;;;;;;;;;;9.00;99.90;;;;;;5105408;27;19924;-64
2021/12/28 07:41:07;;;;;;;;;;;9.40;99.90;;;;;;5104633;27;19924;-63
2021/12/28 07:43:33;;;;;;;;;;;8.90;99.90;;;;;;5092447;28;20315;-63
2021/12/28 07:45:58;;;;;;;;;;;8.90;99.90;;;;;;5092884;27;20334;-64
2021/12/28 07:48:24;;;;;;;;;;;8.70;99.90;;;;;;5092649;27;19915;-64
2021/12/28 07:50:49;;;;;;;;;;;8.80;99.90;;;;;;5092490;28;19976;-64
2021/12/28 07:53:15;;;;;;;;;;;8.60;99.90;;;;;;5098786;27;19924;-63
2021/12/28 07:55:40;;;;;;;;;;;8.60;99.90;;;;;;5093876;28;19923;-64
2021/12/28 07:58:06;;;;;;;;;;;8.60;99.90;;;;;;5090734;27;20586;-64
2021/12/28 08:00:31;;;;;;;;;;;8.70;99.90;;;;;;5096981;28;19931;-64
2021/12/28 08:02:57;;;;;;;;;;;8.70;99.90;;;;;;5102083;28;19927;-64
2021/12/28 08:05:23;;;;;;;;;;;8.70;99.90;;;;;;5106672;28;20010;-63
2021/12/28 08:07:48;;;;;;;;;;;8.80;99.90;;;;;;5104951;28;19919;-61
2021/12/28 08:10:14;;;;;;;;;;;8.80;99.90;;;;;;5100176;28;20315;-64
2021/12/28 08:12:40;;;;;;;;;;;8.80;99.90;;;;;;5112347;27;19916;-63
2021/12/28 08:15:06;;;;;;;;;;;8.80;99.90;;;;;;5110693;27;20339;-64
2021/12/28 08:17:32;;;;;;;;;;;8.90;99.90;;;;;;5097163;27;20588;-64
2021/12/28 08:19:57;;;;;;;;;;;9.10;99.90;;;;;;5100891;27;20431;-64
2021/12/28 08:22:23;;;;;;;;;;;9.10;99.90;;;;;;5095357;27;20394;-69
2021/12/28 08:24:48;;;;;;;;;;;9.10;99.90;;;;;;5100662;27;19916;-67
2021/12/28 08:27:14;;;;;;;;;;;9.10;99.90;;;;;;5107062;27;19919;-68
2021/12/28 08:29:39;;;;;;;;;;;9.10;99.90;;;;;;5109995;27;20319;-68
2021/12/28 08:32:05;;;;;;;;;;;9.10;99.90;;;;;;5114424;27;20313;-67
2021/12/28 08:34:31;;;;;;;;;;;9.20;99.90;;;;;;5107924;27;20390;-68
2021/12/28 08:36:56;;;;;;;;;;;9.10;99.90;;;;;;5117919;27;19919;-65
2021/12/28 08:39:22;;;;;;;;;;;9.10;99.90;;;;;;5120945;27;19962;-69
2021/12/28 08:41:47;;;;;;;;;;;9.20;99.90;;;;;;5119899;27;19923;-67
2021/12/28 08:44:13;;;;;;;;;;;9.10;99.90;;;;;;5108579;27;19927;-67
2021/12/28 08:46:39;;;;;;;;;;;9.20;99.90;;;;;;5092666;28;19916;-67
2021/12/28 08:49:05;;;;;;;;;;;9.20;99.90;;;;;;5101640;27;20313;-68
2021/12/28 08:51:31;;;;;;;;;;;9.20;99.90;;;;;;5106408;27;19916;-67
2021/12/28 08:53:57;;;;;;;;;;;;;;;;;;5105522;27;20555;-68
2021/12/28 08:56:23;;;;;;;;;;;9.20;99.90;;;;;;5084543;28;19935;-67
2021/12/28 08:58:50;;;;;;;;;;;9.10;99.90;;;;;;5105389;27;19942;-65
2021/12/28 09:01:16;;;;;;;;;;;9.10;99.90;;;;;;5098080;27;19994;-68
2021/12/28 09:03:41;;;;;;;;;;;9.10;99.90;;;;;;5111016;27;19927;-67
2021/12/28 09:06:07;;;;;;;;;;;9.10;99.90;;;;;;5099193;27;19915;-66
2021/12/28 09:08:32;;;;;;;;;;;9.20;99.90;;;;;;5105873;27;19916;-66
2021/12/28 09:10:58;;;;;;;;;;;9.20;99.90;;;;;;5091484;27;20586;-68
2021/12/28 09:13:23;;;;;;;;;;;9.20;99.90;;;;;;5096977;27;19924;-66
2021/12/28 09:15:49;;;;;;;;;;;9.20;99.90;;;;;;5097666;27;19923;-67
2021/12/28 09:18:14;;;;;;;;;;;9.20;99.90;;;;;;5080152;27;19916;-67
2021/12/28 09:20:40;;;;;;;;;;;9.30;99.90;;;;;;5098959;27;20048;-67
2021/12/28 09:23:07;;;;;;;;;;;9.30;99.90;;;;;;5079702;27;19920;-67
2021/12/28 09:25:32;;;;;;;;;;;9.30;99.90;;;;;;5093504;27;20409;-65
2021/12/28 09:27:58;;;;;;;;;;;9.30;99.90;;;;;;5097197;27;19924;-65
2021/12/28 09:30:23;;;;;;;;;;;9.30;99.90;;;;;;5105089;27;19916;-67
2021/12/28 09:32:49;;;;;;;;;;;9.30;99.90;;;;;;5113803;27;19938;-67
2021/12/28 09:35:14;;;;;;;;;;;9.30;99.90;;;;;;5094073;28;19920;-67
2021/12/28 09:37:40;;;;;;;;;;;9.40;99.90;;;;;;5119922;27;20250;-66
2021/12/28 09:40:08;;;;;;;;;;;9.30;99.90;;;;;;5100864;27;19923;-67
2021/12/28 09:42:33;;;;;;;;;;;9.30;99.90;;;;;;5098852;27;19926;-65
2021/12/28 09:44:59;;;;;;;;;;;9.30;99.90;;;;;;5106032;27;20014;-68
2021/12/28 09:47:25;;;;;;;;;;;9.40;99.90;;;;;;5085861;27;19915;-65
2021/12/28 09:49:50;;;;;;;;;;;9.40;99.90;;;;;;5089534;27;20059;-65
2021/12/28 09:52:17;;;;;;;;;;;9.40;99.90;;;;;;5073965;28;19916;-66
2021/12/28 09:54:43;;;;;;;;;;;9.40;99.90;;;;;;5091055;27;19927;-65
2021/12/28 09:57:08;;;;;;;;;;;9.40;99.90;;;;;;5097215;27;20314;-65
2021/12/28 09:59:34;;;;;;;;;;;9.50;99.90;;;;;;5093883;27;20386;-67
2021/12/28 10:02:06;;;;;;;;;;;9.40;99.90;;;;;;5101308;27;19919;-65
2021/12/28 10:04:32;;;;;;;;;;;9.40;99.90;;;;;;5095877;27;19923;-64
2021/12/28 10:07:17;;;;;;;;;;;9.40;99.90;;;;;;5096890;27;20350;-67
2021/12/28 10:09:43;;;;;;;;;;;9.50;99.90;;;;;;5105172;27;19999;-65
2021/12/28 10:12:09;;;;;;;;;;;9.50;99.90;;;;;;5115547;27;20339;-67
2021/12/28 10:14:36;;;;;;;;;;;9.50;99.90;;;;;;5120037;27;20440;-67
2021/12/28 10:17:03;;;;;;;;;;;9.50;99.90;;;;;;5106851;27;20363;-67
2021/12/28 10:19:30;;;;;;;;;;;9.50;99.90;;;;;;5100893;27;20294;-66
2021/12/28 10:21:55;;;;;;;;;;;9.50;99.90;;;;;;5119133;27;20018;-66
2021/12/28 10:24:31;;;;;;;;;;;9.50;99.90;;;;;;5117731;27;20050;-66
2021/12/28 10:27:10;;;;;;;;;;;9.60;99.90;;;;;;5109637;27;20332;-65
2021/12/28 10:29:36;;;;;;;;;;;9.50;99.90;;;;;;5089935;27;19930;-64
2021/12/28 10:32:20;;;;;;;;;;;9.50;99.90;;;;;;5093206;27;19919;-67
2021/12/28 10:34:50;;;;;;;;;;;9.50;99.90;;;;;;5092582;27;19927;-66
2021/12/28 10:37:17;;;;;;;;;;;9.50;99.90;;;;;;5092599;27;19931;-66
2021/12/28 10:39:46;;;;;;;;;;;9.60;99.90;;;;;;5097568;27;19984;-67
2021/12/28 10:42:36;;;;;;;;;;;9.60;99.90;;;;;;5091712;27;19988;-66
2021/12/28 10:45:02;;;;;;;;;;;9.60;99.90;;;;;;5086211;27;19916;-67
2021/12/28 10:47:27;;;;;;;;;;;9.60;99.90;;;;;;5071365;28;19920;-64
2021/12/28 10:49:53;;;;;;;;;;;9.60;99.90;;;;;;5096354;27;19931;-66
2021/12/28 10:52:28;;;;;;;;;;;9.60;99.90;;;;;;5103217;27;20389;-66
2021/12/28 10:55:12;;;;;;;;;;;9.70;99.90;;;;;;5097576;27;19924;-67
2021/12/28 10:57:39;;;;;;;;;;;9.70;99.90;;;;;;5089897;27;20332;-67
2021/12/28 11:00:22;;;;;;;;;;;9.70;99.90;;;;;;5099787;27;19972;-66
2021/12/28 11:02:48;;;;;;;;;;;9.70;99.90;;;;;;5087646;27;19920;-66
2021/12/28 11:05:33;;;;;;;;;;;9.80;99.90;;;;;;5093197;27;19923;-67
2021/12/28 11:07:58;;;;;;;;;;;9.80;99.90;;;;;;5106807;27;19955;-67
2021/12/28 11:10:28;;;;;;;;;;;9.80;99.90;;;;;;5087576;27;20024;-66
2021/12/28 11:12:57;;;;;;;;;;;9.80;99.90;;;;;;5092572;27;20382;-67
2021/12/28 11:15:24;;;;;;;;;;;9.80;99.90;;;;;;5090236;27;19924;-67
2021/12/28 11:17:50;;;;;;;;;;;9.80;99.90;;;;;;5099911;27;20552;-67
2021/12/28 11:20:16;;;;;;;;;;;9.80;99.90;;;;;;5095330;27;19920;-65
2021/12/28 11:23:01;;;;;;;;;;;9.90;99.90;;;;;;5086301;27;19961;-67
2021/12/28 11:25:27;;;;;;;;;;;9.90;99.90;;;;;;5098627;27;19931;-64
2021/12/28 11:28:13;;;;;;;;;;;9.90;99.90;;;;;;5093552;27;19920;-67
2021/12/28 11:30:38;;;;;;;;;;;9.90;99.90;;;;;;5087779;27;19978;-66
2021/12/28 11:33:05;;;;;;;;;;;9.90;99.90;;;;;;5086043;27;19923;-68
2021/12/28 11:35:31;;;;;;;;;;;10.00;99.90;;;;;;5079643;28;19998;-67
2021/12/28 11:37:56;;;;;;;;;;;9.90;99.90;;;;;;5106182;27;20022;-67
2021/12/28 11:40:22;;;;;;;;;;;9.90;99.90;;;;;;5099770;27;19928;-67
2021/12/28 11:42:47;;;;;;;;;;;10.00;99.90;;;;;;5118245;27;19920;-67
2021/12/28 11:45:13;;;;;;;;;;;9.90;99.90;;;;;;5112408;27;19920;-66
2021/12/28 11:47:38;;;;;;;;;;;10.00;99.90;;;;;;5103695;27;19998;-66
2021/12/28 11:50:04;;;;;;;;;;;10.00;99.90;;;;;;5112178;27;19916;-67
2021/12/28 11:52:30;;;;;;;;;;;10.10;99.90;;;;;;5110132;28;19915;-66
2021/12/28 11:54:57;;;;;;;;;;;10.10;99.90;;;;;;5097611;28;19935;-65
2021/12/28 11:57:26;;;;;;;;;;;10.10;99.90;;;;;;5104937;27;19988;-67
2021/12/28 12:00:07;;;;;;;;;;;10.10;99.90;;;;;;5096579;28;20823;-67
2021/12/28 12:02:38;;;;;;;;;;;10.00;99.90;;;;;;5098556;28;20462;-68
2021/12/28 12:05:20;;;;;;;;;;;10.10;99.90;;;;;;5095029;28;20381;-67
2021/12/28 12:08:01;;;;;;;;;;;10.20;99.90;;;;;;5104784;28;20487;-65
2021/12/28 12:10:30;;;;;;;;;;;10.10;99.90;;;;;;5090125;28;20371;-65
2021/12/28 12:12:56;;;;;;;;;;;10.10;99.90;;;;;;5094977;27;20439;-65
2021/12/28 12:15:23;;;;;;;;;;;10.20;99.90;;;;;;5096831;28;20295;-66
2021/12/28 12:17:48;;;;;;;;;;;10.10;99.90;;;;;;5091871;28;20420;-67
2021/12/28 12:20:22;;;;;;;;;;;10.10;99.90;;;;;;5112133;28;19915;-64
2021/12/28 12:22:49;;;;;;;;;;;10.00;99.90;;;;;;5099173;28;19920;-63
2021/12/28 12:25:19;;;;;;;;;;;10.00;99.90;;;;;;5108294;28;19916;-66
2021/12/28 12:27:57;;;;;;;;;;;10.00;99.90;;;;;;5109298;28;19923;-65
2021/12/28 12:30:23;;;;;;;;;;;10.00;99.90;;;;;;5099547;28;19920;-67
2021/12/28 12:32:55;;;;;;;;;;;10.00;99.90;;;;;;5095710;28;20511;-65
2021/12/28 12:35:40;;;;;;;;;;;10.00;99.90;;;;;;5109187;28;19920;-67
2021/12/28 12:38:14;;;;;;;;;;;10.00;99.90;;;;;;5086528;28;19927;-66
2021/12/28 12:40:56;;;;;;;;;;;10.10;99.90;;;;;;5076229;28;20693;-67
2021/12/28 12:43:23;;;;;;;;;;;10.00;99.90;;;;;;5097152;27;20019;-66
2021/12/28 12:45:56;;;;;;;;;;;10.00;99.90;;;;;;5095863;28;20022;-65
2021/12/28 12:48:30;;;;;;;;;;;10.00;99.90;;;;;;5099926;27;19916;-66
2021/12/28 12:51:14;;;;;;;;;;;10.00;99.90;;;;;;5102830;27;20407;-66
2021/12/28 12:53:43;;;;;;;;;;;10.00;99.90;;;;;;5108042;27;19916;-64
2021/12/28 12:56:12;;;;;;;;;;;10.00;99.90;;;;;;5075788;28;19923;-67
2021/12/28 12:58:39;;;;;;;;;;;10.00;99.90;;;;;;5095778;28;20363;-66
2021/12/28 13:01:05;;;;;;;;;;;9.90;99.90;;;;;;5071569;27;20346;-67
2021/12/28 13:03:33;;;;;;;;;;;9.90;99.90;;;;;;5091241;27;19924;-66
2021/12/28 13:06:00;;;;;;;;;;;9.90;99.90;;;;;;5106694;27;19916;-67
2021/12/28 13:08:25;;;;;;;;;;;9.90;99.90;;;;;;5107724;27;19924;-67
2021/12/28 13:10:51;;;;;;;;;;;9.90;99.90;;;;;;5089567;27;20125;-67
2021/12/28 13:13:16;;;;;;;;;;;9.90;99.90;;;;;;5095503;27;20105;-65
2021/12/28 13:15:42;;;;;;;;;;;9.90;99.90;;;;;;5097737;27;19920;-65
2021/12/28 13:18:07;;;;;;;;;;;9.90;99.90;;;;;;5091935;27;19950;-65
2021/12/28 13:20:34;;;;;;;;;;;9.90;99.90;;;;;;5097133;27;19975;-67
2021/12/28 13:22:59;;;;;;;;;;;9.90;99.90;;;;;;5109213;27;19915;-68
2021/12/28 13:25:40;;;;;;;;;;;9.90;99.90;;;;;;5094544;27;19939;-67
2021/12/28 13:28:07;;;;;;;;;;;10.00;99.90;;;;;;5089975;27;19971;-67
2021/12/28 13:30:34;;;;;;;;;;;10.00;99.90;;;;;;5098505;27;19983;-66
2021/12/28 13:33:00;;;;;;;;;;;10.00;99.90;;;;;;5109268;27;20307;-68
2021/12/28 13:35:27;;;;;;;;;;;10.00;99.90;;;;;;5090770;27;19951;-67
2021/12/28 13:38:01;;;;;;;;;;;10.00;99.90;;;;;;5091699;27;19924;-67
2021/12/28 13:40:53;;;;;;;;;;;10.10;99.90;;;;;;5103818;27;20564;-67
2021/12/28 13:43:21;;;;;;;;;;;10.10;99.90;;;;;;5096152;27;19919;-68
2021/12/28 13:45:50;;;;;;;;;;;10.20;99.90;;;;;;5090014;27;19924;-67
2021/12/28 13:48:16;;;;;;;;;;;10.30;99.90;;;;;;5089469;27;19927;-66
2021/12/28 13:50:44;;;;;;;;;;;10.30;99.90;;;;;;5087040;27;19920;-66
2021/12/28 13:53:10;;;;;;;;;;;10.30;99.90;;;;;;5087522;27;19926;-66
2021/12/28 13:55:36;;;;;;;;;;;10.30;99.90;;;;;;5111711;27;19919;-68
2021/12/28 13:58:04;;;;;;;;;;;10.30;99.90;;;;;;5115553;27;20294;-67
2021/12/28 14:00:32;;;;;;;;;;;10.30;99.90;;;;;;5115429;27;19923;-67
2021/12/28 14:02:59;;;;;;;;;;;10.20;99.90;;;;;;5110220;27;19958;-68
2021/12/28 14:05:25;;;;;;;;;;;10.20;99.90;;;;;;5116048;27;19920;-68
2021/12/28 14:07:50;;;;;;;;;;;10.20;99.90;;;;;;5105838;27;20506;-68
2021/12/28 14:10:16;;;;;;;;;;;10.20;99.90;;;;;;5093768;27;20437;-67
2021/12/28 14:12:42;;;;;;;;;;;10.20;99.90;;;;;;5096806;27;19978;-67
2021/12/28 14:15:16;;;;;;;;;;;10.20;99.90;;;;;;5094469;27;19916;-67
2021/12/28 14:17:41;;;;;;;;;;;10.20;99.90;;;;;;5097949;27;20040;-68
2021/12/28 14:20:07;;;;;;;;;;;10.20;99.90;;;;;;5094044;27;19928;-66
2021/12/28 14:22:33;;;;;;;;;;;10.20;99.90;;;;;;5100318;27;19924;-65
2021/12/28 14:24:58;;;;;;;;;;;10.20;99.90;;;;;;5100616;27;20006;-68
2021/12/28 14:27:31;;;;;;;;;;;10.20;99.90;;;;;;5098563;27;20008;-66